This is the latest recevied weather packets stored in our database for station/object WD4HMR. If no packets are shown the sender has not sent any weather packets the latest 10 day(s).
| Time | Temp. | Humidity | Pressure | Rain* | Wind** | Luminosity | Snow |
|---|---|---|---|---|---|---|---|
| 1777487029 | 23.89° C | 87% | 1014 hPa | 0 mm | - | - | - |
| 1777486772 | 23.89° C | 86% | 1014 hPa | 0 mm | - | - | - |
| 1777486608 | 23.89° C | 85% | 1014.1 hPa | 0 mm | - | - | - |
| 1777486292 | 23.89° C | 85% | 1014.2 hPa | 0 mm | - | - | - |
| 1777486188 | 23.89° C | 85% | 1014.2 hPa | 0 mm | - | - | - |
| 1777485811 | 23.89° C | 87% | 1014.2 hPa | 0 mm | - | - | - |
| 1777485768 | 23.89° C | 87% | 1014.2 hPa | 0 mm | - | - | - |
| 1777485239 | 23.89° C | 87% | 1014.1 hPa | 0 mm | - | - | - |
| 1777484852 | 24.44° C | 85% | 1014.3 hPa | 0 mm | - | - | - |
| 1777484819 | 24.44° C | 85% | 1014.3 hPa | 0 mm | - | - | - |
| 1777484399 | 23.89° C | 85% | 1014.2 hPa | 0 mm | - | - | - |
| 1777484372 | 23.89° C | 85% | 1014.2 hPa | 0 mm | - | - | - |
| 1777483978 | 23.33° C | 88% | 1014 hPa | 0 mm | - | - | - |
| 1777483892 | 23.33° C | 88% | 1014.1 hPa | 0 mm | - | - | - |
| 1777483558 | 22.78° C | 88% | 1014.1 hPa | 0 mm | - | - | - |
| 1777483412 | 22.78° C | 88% | 1014.1 hPa | 0 mm | - | - | - |
| 1777483138 | 22.22° C | 90% | 1013.7 hPa | 0 mm | - | - | - |
| 1777482931 | 22.22° C | 91% | 1013.6 hPa | 0 mm | - | - | - |
| 1777482718 | 22.22° C | 92% | 1013.5 hPa | 0 mm | - | - | - |
| 1777482452 | 22.22° C | 91% | 1013.8 hPa | 0 mm | - | - | - |
| 1777482299 | 22.22° C | 91% | 1013.9 hPa | 0 mm | - | - | - |
| 1777481879 | 22.22° C | 91% | 1013.9 hPa | 0 mm | - | - | - |
| 1777481492 | 22.22° C | 91% | 1013.9 hPa | 0 mm | - | - | - |
| 1777481459 | 22.22° C | 90% | 1014 hPa | 0 mm | - | - | - |
| 1777481039 | 22.22° C | 90% | 1014.1 hPa | 0 mm | - | - | - |
* Rain latest hour (hover to see other rain measurements)
** Current wind speed in m/s (hover to see current wind gust speed)